createdAt,value
2023-03-18T00:00:34.476Z,100805.55
2023-03-18T00:03:18.570Z,100807.10
2023-03-18T00:05:46.463Z,100807.32
2023-03-18T00:08:14.274Z,100808.02
2023-03-18T00:10:42.104Z,100809.74
2023-03-18T00:13:10.630Z,100810.41
2023-03-18T00:15:38.501Z,100809.34
2023-03-18T00:18:06.676Z,100803.23
2023-03-18T00:20:40.524Z,100801.72
2023-03-18T00:23:08.878Z,100802.11
2023-03-18T00:25:39.023Z,100801.60
2023-03-18T00:28:07.658Z,100797.57
2023-03-18T00:30:38.892Z,100796.71
2023-03-18T00:33:07.435Z,100797.96
2023-03-18T00:35:36.437Z,100791.52
2023-03-18T00:38:07.747Z,100789.46
2023-03-18T00:40:53.737Z,100787.33
2023-03-18T00:43:23.581Z,100786.30
2023-03-18T00:45:51.489Z,100788.06
2023-03-18T00:48:19.334Z,100783.91
2023-03-18T00:50:47.175Z,100782.29
2023-03-18T00:53:16.595Z,100784.52
2023-03-18T00:55:45.261Z,100779.57
2023-03-18T00:58:13.506Z,100779.27
2023-03-18T01:00:41.696Z,100777.19
2023-03-18T01:03:09.595Z,100781.77
2023-03-18T01:05:38.332Z,100776.64
2023-03-18T01:08:06.345Z,100774.89
2023-03-18T01:10:34.459Z,100773.55
2023-03-18T01:13:02.676Z,100770.73
2023-03-18T01:15:30.487Z,100769.09
2023-03-18T01:17:58.491Z,100768.05
2023-03-18T01:20:27.186Z,100758.16
2023-03-18T01:22:57.120Z,100755.75
2023-03-18T01:25:25.362Z,100755.44
2023-03-18T01:27:54.462Z,100755.64
2023-03-18T01:30:23.759Z,100756.26
2023-03-18T01:32:52.409Z,100756.75
2023-03-18T01:35:20.324Z,100755.96
2023-03-18T01:37:49.286Z,100761.09
2023-03-18T01:40:17.862Z,100760.24
2023-03-18T01:42:59.343Z,100763.11
2023-03-18T01:45:30.371Z,100762.64
2023-03-18T01:48:00.323Z,100758.96
2023-03-18T01:50:33.512Z,100758.35
2023-03-18T01:53:09.347Z,100750.40
2023-03-18T01:55:39.989Z,100753.92
2023-03-18T01:58:17.294Z,100747.38
2023-03-18T02:00:51.722Z,100748.31
2023-03-18T02:03:21.416Z,100750.79
2023-03-18T02:05:50.468Z,100751.95
2023-03-18T02:08:18.580Z,100752.61
2023-03-18T02:10:46.654Z,100753.69
2023-03-18T02:13:16.337Z,100757.95
2023-03-18T02:15:55.473Z,100756.99
2023-03-18T02:18:35.517Z,100756.33
2023-03-18T02:21:12.599Z,100755.84
2023-03-18T02:23:59.735Z,100756.98
2023-03-18T02:27:02.563Z,100754.33
2023-03-18T02:29:40.369Z,100751.67
2023-03-18T02:32:13.972Z,100751.70
2023-03-18T02:34:44.316Z,100753.30
2023-03-18T02:37:12.810Z,100757.59
2023-03-18T02:39:41.672Z,100752.05
2023-03-18T02:42:14.449Z,100744.95
2023-03-18T02:44:47.949Z,100735.03
2023-03-18T02:47:34.377Z,100738.71
2023-03-18T02:50:03.835Z,100733.83
2023-03-18T02:52:31.818Z,100732.89
2023-03-18T02:55:01.793Z,100738.11
2023-03-18T02:57:29.686Z,100739.14
2023-03-18T02:59:57.605Z,100738.80
2023-03-18T03:02:26.433Z,100741.64
2023-03-18T03:04:54.421Z,100743.20
2023-03-18T03:07:26.942Z,100745.54
2023-03-18T03:09:55.275Z,100748.28
2023-03-18T03:12:23.452Z,100753.09
2023-03-18T03:14:54.344Z,100754.89
2023-03-18T03:17:22.824Z,100748.85
2023-03-18T03:19:52.235Z,100747.32
2023-03-18T03:22:20.078Z,100747.86
2023-03-18T03:24:49.404Z,100749.45
2023-03-18T03:27:17.849Z,100748.66
2023-03-18T03:29:45.840Z,100757.95
2023-03-18T03:32:13.866Z,100760.92
2023-03-18T03:34:43.482Z,100758.20
2023-03-18T03:37:12.703Z,100763.41
2023-03-18T03:39:40.947Z,100768.96
2023-03-18T03:42:08.905Z,100770.75
2023-03-18T03:44:36.692Z,100770.02
2023-03-18T03:47:05.046Z,100766.52
2023-03-18T03:49:33.394Z,100767.61
2023-03-18T03:52:01.456Z,100769.98
2023-03-18T03:54:29.832Z,100773.33
2023-03-18T03:56:58.349Z,100775.38
2023-03-18T03:59:26.401Z,100770.23
2023-03-18T04:02:14.354Z,100773.92
2023-03-18T04:04:43.555Z,100771.09
2023-03-18T04:07:17.697Z,100768.51
2023-03-18T04:09:46.741Z,100763.77
2023-03-18T04:12:14.831Z,100766.54
2023-03-18T04:14:43.361Z,100766.27
2023-03-18T04:17:11.604Z,100770.52
2023-03-18T04:19:40.155Z,100772.83
2023-03-18T04:22:09.824Z,100772.63
2023-03-18T04:24:38.792Z,100768.36
2023-03-18T04:27:07.746Z,100766.65
2023-03-18T04:29:35.541Z,100770.16
2023-03-18T04:32:04.367Z,100769.89
2023-03-18T04:34:32.798Z,100767.77
2023-03-18T04:37:00.673Z,100768.68
2023-03-18T04:39:29.057Z,100765.00
2023-03-18T04:41:59.799Z,100764.16
2023-03-18T04:44:29.193Z,100765.06
2023-03-18T04:46:57.153Z,100763.58
2023-03-18T04:49:25.710Z,100758.05
2023-03-18T04:51:55.057Z,100751.65
2023-03-18T04:54:28.457Z,100753.63
2023-03-18T04:56:58.118Z,100756.36
2023-03-18T04:59:27.593Z,100759.13
2023-03-18T05:01:55.825Z,100759.59
2023-03-18T05:04:24.258Z,100755.66
2023-03-18T05:06:53.436Z,100758.59
2023-03-18T05:09:26.254Z,100755.67
2023-03-18T05:11:54.499Z,100762.55
2023-03-18T05:14:27.437Z,100763.20
2023-03-18T05:16:56.139Z,100763.05
2023-03-18T05:19:25.377Z,100762.64
2023-03-18T05:22:00.517Z,100764.17
2023-03-18T05:24:28.676Z,100767.07
2023-03-18T05:26:57.494Z,100766.24
2023-03-18T05:29:29.876Z,100762.64
2023-03-18T05:32:08.972Z,100761.21
2023-03-18T05:34:39.193Z,100759.90
2023-03-18T05:37:10.101Z,100762.96
2023-03-18T05:39:40.221Z,100759.23
2023-03-18T05:42:11.569Z,100758.52
2023-03-18T05:44:40.510Z,100755.96
2023-03-18T05:47:10.097Z,100757.80
2023-03-18T05:49:57.826Z,100752.15
2023-03-18T05:52:26.600Z,100754.19
2023-03-18T05:54:57.001Z,100752.83
2023-03-18T05:57:28.552Z,100752.80
2023-03-18T06:00:02.464Z,100752.49
2023-03-18T06:02:43.790Z,100754.80
2023-03-18T06:05:13.755Z,100758.57
2023-03-18T06:07:41.899Z,100757.50
2023-03-18T06:10:10.617Z,100753.70
2023-03-18T06:12:39.581Z,100756.09
2023-03-18T06:15:09.162Z,100755.72
2023-03-18T06:17:37.644Z,100759.11
2023-03-18T06:20:08.886Z,100758.29
2023-03-18T06:22:37.204Z,100758.32
2023-03-18T06:25:08.267Z,100758.84
2023-03-18T06:27:38.504Z,100758.52
2023-03-18T06:30:06.844Z,100758.46
2023-03-18T06:32:36.958Z,100763.31
2023-03-18T06:35:05.334Z,100769.17
2023-03-18T06:37:34.093Z,100777.28
2023-03-18T06:40:02.250Z,100778.27
2023-03-18T06:42:32.240Z,100779.91
2023-03-18T06:45:13.798Z,100777.98
2023-03-18T06:47:55.278Z,100773.25
2023-03-18T06:50:24.468Z,100774.04
2023-03-18T06:52:53.176Z,100770.41
2023-03-18T06:55:26.803Z,100770.69
2023-03-18T06:57:54.750Z,100772.76
2023-03-18T07:00:26.896Z,100769.70
2023-03-18T07:02:55.485Z,100772.17
2023-03-18T07:05:26.630Z,100771.02
2023-03-18T07:07:55.808Z,100770.73
2023-03-18T07:10:29.671Z,100777.29
2023-03-18T07:13:10.743Z,100780.32
2023-03-18T07:15:40.296Z,100781.55
2023-03-18T07:18:12.076Z,100781.50
2023-03-18T07:20:40.368Z,100785.07
2023-03-18T07:23:08.339Z,100781.15
2023-03-18T07:25:36.723Z,100777.17
2023-03-18T07:28:05.902Z,100780.27
2023-03-18T07:30:34.250Z,100776.39
2023-03-18T07:33:02.543Z,100779.04
2023-03-18T07:35:31.171Z,100776.36
2023-03-18T07:37:59.460Z,100779.27
2023-03-18T07:40:27.444Z,100779.86
2023-03-18T07:42:55.779Z,100779.38
2023-03-18T07:45:24.002Z,100779.38
2023-03-18T07:47:51.899Z,100775.12
2023-03-18T07:50:19.903Z,100779.48
2023-03-18T07:52:48.241Z,100786.67
2023-03-18T07:55:16.465Z,100786.96
2023-03-18T07:57:44.312Z,100789.10
2023-03-18T08:00:12.702Z,100791.06
2023-03-18T08:02:43.698Z,100795.09
2023-03-18T08:05:13.796Z,100798.39
2023-03-18T08:07:41.766Z,100798.06
2023-03-18T08:10:10.178Z,100796.73
2023-03-18T08:12:51.557Z,100799.14
2023-03-18T08:15:22.441Z,100797.60
2023-03-18T08:17:51.209Z,100800.39
2023-03-18T08:20:19.357Z,100799.66
2023-03-18T08:22:47.356Z,100800.96
2023-03-18T08:25:15.916Z,100798.83
2023-03-18T08:27:43.866Z,100801.69
2023-03-18T08:30:13.767Z,100804.55
2023-03-18T08:32:43.830Z,100802.22
2023-03-18T08:35:12.971Z,100799.23
2023-03-18T08:37:41.244Z,100802.54
2023-03-18T08:40:10.059Z,100802.11
2023-03-18T08:42:37.870Z,100801.27
2023-03-18T08:45:06.529Z,100799.09
2023-03-18T08:47:34.298Z,100796.58
2023-03-18T08:50:02.087Z,100800.46
2023-03-18T08:52:30.088Z,100799.72
2023-03-18T08:54:58.603Z,100799.65
2023-03-18T08:57:28.074Z,100800.09
2023-03-18T08:59:55.956Z,100799.85
2023-03-18T09:02:23.780Z,100800.35
2023-03-18T09:04:55.148Z,100797.55
2023-03-18T09:07:23.064Z,100799.83
2023-03-18T09:09:54.093Z,100797.43
2023-03-18T09:12:22.747Z,100800.59
2023-03-18T09:14:50.656Z,100801.30
2023-03-18T09:17:18.523Z,100802.13
2023-03-18T09:19:46.385Z,100803.17
2023-03-18T09:22:14.337Z,100802.77
2023-03-18T09:24:42.363Z,100802.38
2023-03-18T09:27:10.821Z,100803.74
2023-03-18T09:29:38.701Z,100805.21
2023-03-18T09:32:06.912Z,100805.33
2023-03-18T09:34:34.723Z,100800.90
2023-03-18T09:37:02.456Z,100801.71
2023-03-18T09:39:30.262Z,100801.13
2023-03-18T09:42:04.334Z,100801.00
2023-03-18T09:44:34.848Z,100801.77
2023-03-18T09:47:34.269Z,100795.52
2023-03-18T09:50:42.136Z,100795.64
2023-03-18T09:53:41.954Z,100797.08
2023-03-18T09:56:18.035Z,100791.73
2023-03-18T09:58:54.723Z,100790.65
2023-03-18T10:01:26.456Z,100788.85
2023-03-18T10:04:17.071Z,100790.05
2023-03-18T10:06:47.264Z,100787.06
2023-03-18T10:09:29.128Z,100787.55
2023-03-18T10:12:10.340Z,100786.46
2023-03-18T10:14:49.990Z,100789.08
2023-03-18T10:17:42.637Z,100782.52
2023-03-18T10:20:51.775Z,100780.05
2023-03-18T10:23:27.439Z,100776.58
2023-03-18T10:26:04.809Z,100772.57
2023-03-18T10:28:49.304Z,100776.97
2023-03-18T10:31:36.625Z,100773.35
2023-03-18T10:34:11.938Z,100766.29
2023-03-18T10:37:01.384Z,100769.02
2023-03-18T10:39:29.701Z,100767.31
2023-03-18T10:42:01.849Z,100760.57
2023-03-18T10:44:34.292Z,100759.86
2023-03-18T10:47:07.146Z,100760.61
2023-03-18T10:49:39.251Z,100759.02
2023-03-18T10:52:18.411Z,100756.14
2023-03-18T10:54:53.024Z,100758.39
2023-03-18T10:57:22.693Z,100764.30
2023-03-18T10:59:52.318Z,100763.88
2023-03-18T11:02:20.426Z,100760.88
2023-03-18T11:04:55.381Z,100759.73
2023-03-18T11:07:26.759Z,100760.35
2023-03-18T11:09:55.103Z,100761.30
2023-03-18T11:12:32.600Z,100758.27
2023-03-18T11:15:00.774Z,100753.25
2023-03-18T11:17:33.276Z,100755.02
2023-03-18T11:20:10.968Z,100750.59
2023-03-18T11:22:45.861Z,100751.89
2023-03-18T11:25:24.200Z,100751.61
2023-03-18T11:28:19.932Z,100753.10
2023-03-18T11:30:55.346Z,100748.04
2023-03-18T11:33:33.393Z,100754.23
2023-03-18T11:36:07.095Z,100749.34
2023-03-18T11:38:37.277Z,100749.95
2023-03-18T11:41:13.353Z,100751.92
2023-03-18T11:44:02.542Z,100745.84
2023-03-18T11:46:38.812Z,100747.70
2023-03-18T11:49:13.158Z,100746.89
2023-03-18T11:51:50.000Z,100745.20
2023-03-18T11:54:43.312Z,100746.75
2023-03-18T11:57:43.499Z,100745.97
2023-03-18T12:00:26.574Z,100744.30
2023-03-18T12:03:06.083Z,100744.27
2023-03-18T12:05:57.074Z,100744.08
2023-03-18T12:08:38.549Z,100746.09
2023-03-18T12:11:33.098Z,100746.73
2023-03-18T12:14:28.513Z,100751.16
2023-03-18T12:17:05.468Z,100754.60
2023-03-18T12:19:54.936Z,100759.27
2023-03-18T12:22:22.648Z,100761.77
2023-03-18T12:25:20.761Z,100758.19
2023-03-18T12:28:04.283Z,100755.15
2023-03-18T12:30:53.236Z,100758.02
2023-03-18T12:33:40.344Z,100757.88
2023-03-18T12:36:39.894Z,100755.52
2023-03-18T12:39:19.983Z,100752.66
2023-03-18T12:41:58.013Z,100751.06
2023-03-18T12:45:00.977Z,100755.48
2023-03-18T12:47:37.160Z,100754.73
2023-03-18T12:50:15.416Z,100756.30
2023-03-18T12:52:52.289Z,100756.17
2023-03-18T12:55:29.430Z,100757.35
2023-03-18T12:58:05.376Z,100753.65
2023-03-18T13:00:44.296Z,100748.46
2023-03-18T13:03:24.815Z,100745.79
2023-03-18T13:05:57.373Z,100746.83
2023-03-18T13:09:02.182Z,100744.04
2023-03-18T13:12:01.908Z,100749.29
2023-03-18T13:14:48.636Z,100745.82
2023-03-18T13:17:29.745Z,100748.73
2023-03-18T13:20:03.892Z,100747.73
2023-03-18T13:22:44.154Z,100752.31
2023-03-18T13:25:30.525Z,100751.90
2023-03-18T13:28:25.584Z,100753.16
2023-03-18T13:30:56.183Z,100753.08
2023-03-18T13:33:39.402Z,100753.59
2023-03-18T13:36:42.469Z,100746.77
2023-03-18T13:39:36.301Z,100744.77
2023-03-18T13:42:04.120Z,100744.39
2023-03-18T13:44:42.475Z,100741.67
2023-03-18T13:47:18.096Z,100737.98
2023-03-18T13:49:47.411Z,100741.67
2023-03-18T13:52:26.835Z,100742.16
2023-03-18T13:55:02.181Z,100745.80
2023-03-18T13:57:33.433Z,100748.27
2023-03-18T14:00:30.665Z,100746.85
2023-03-18T14:03:18.088Z,100750.27
2023-03-18T14:05:47.089Z,100751.08
2023-03-18T14:08:37.291Z,100747.93
2023-03-18T14:11:17.364Z,100750.27
2023-03-18T14:14:01.868Z,100753.23
2023-03-18T14:16:37.786Z,100748.30
2023-03-18T14:19:17.798Z,100740.36
2023-03-18T14:21:49.318Z,100744.48
2023-03-18T14:24:23.212Z,100741.84
2023-03-18T14:27:06.825Z,100739.20
2023-03-18T14:29:37.490Z,100738.04
2023-03-18T14:32:26.178Z,100735.45
2023-03-18T14:34:57.539Z,100733.65
2023-03-18T14:37:46.816Z,100728.95
2023-03-18T14:40:17.834Z,100727.73
2023-03-18T14:42:58.366Z,100729.56
2023-03-18T14:45:33.689Z,100727.31
2023-03-18T14:48:24.435Z,100726.91
2023-03-18T14:50:56.090Z,100728.18
2023-03-18T14:53:32.555Z,100724.94
2023-03-18T14:56:02.910Z,100723.95
2023-03-18T14:58:33.774Z,100720.61
2023-03-18T15:01:09.789Z,100720.61
2023-03-18T15:03:40.862Z,100725.28
2023-03-18T15:06:17.816Z,100727.06
2023-03-18T15:08:58.874Z,100727.52
2023-03-18T15:11:27.078Z,100728.28
2023-03-18T15:14:00.079Z,100722.37
2023-03-18T15:16:33.091Z,100725.32
2023-03-18T15:19:03.694Z,100724.10
2023-03-18T15:21:37.651Z,100723.54
2023-03-18T15:24:07.830Z,100718.89
2023-03-18T15:26:40.901Z,100718.10
2023-03-18T15:29:28.854Z,100718.09
2023-03-18T15:32:16.482Z,100716.58
2023-03-18T15:34:51.118Z,100714.36
2023-03-18T15:37:42.658Z,100716.90
2023-03-18T15:40:22.527Z,100719.42
2023-03-18T15:42:50.849Z,100723.86
2023-03-18T15:45:21.871Z,100722.72
2023-03-18T15:47:49.770Z,100724.05
2023-03-18T15:50:29.138Z,100720.77
2023-03-18T15:53:17.931Z,100720.80
2023-03-18T15:55:51.771Z,100722.44
2023-03-18T15:58:23.456Z,100725.53
2023-03-18T16:00:52.775Z,100722.77
2023-03-18T16:03:24.647Z,100725.78
2023-03-18T16:05:53.903Z,100725.48
2023-03-18T16:08:22.870Z,100731.34
2023-03-18T16:10:54.797Z,100732.48
2023-03-18T16:13:26.679Z,100735.73
2023-03-18T16:15:54.613Z,100737.09
2023-03-18T16:18:22.903Z,100737.34
2023-03-18T16:20:52.925Z,100736.79
2023-03-18T16:23:21.257Z,100733.68
2023-03-18T16:25:52.623Z,100736.58
2023-03-18T16:28:25.898Z,100737.27
2023-03-18T16:30:56.362Z,100741.97
2023-03-18T16:33:24.998Z,100747.31
2023-03-18T16:36:00.402Z,100744.44
2023-03-18T16:38:31.255Z,100746.04
2023-03-18T16:40:59.163Z,100750.92
2023-03-18T16:43:30.397Z,100751.67
2023-03-18T16:46:04.239Z,100751.38
2023-03-18T16:48:32.641Z,100749.13
2023-03-18T16:51:02.794Z,100748.75
2023-03-18T16:53:31.700Z,100750.80
2023-03-18T16:56:21.975Z,100754.46
2023-03-18T16:58:51.407Z,100752.86
2023-03-18T17:01:19.599Z,100756.98
2023-03-18T17:03:48.136Z,100757.80
2023-03-18T17:06:16.275Z,100759.77
2023-03-18T17:08:44.120Z,100763.23
2023-03-18T17:11:18.405Z,100759.45
2023-03-18T17:13:47.340Z,100759.97
2023-03-18T17:16:20.200Z,100762.55
2023-03-18T17:18:48.241Z,100766.89
2023-03-18T17:21:17.090Z,100763.10
2023-03-18T17:23:45.776Z,100764.47
2023-03-18T17:26:17.093Z,100766.95
2023-03-18T17:28:49.333Z,100774.85
2023-03-18T17:31:17.502Z,100773.48
2023-03-18T17:33:45.458Z,100773.53
2023-03-18T17:36:13.289Z,100778.67
2023-03-18T17:38:41.188Z,100780.33
2023-03-18T17:41:19.357Z,100780.13
2023-03-18T17:43:47.408Z,100780.36
2023-03-18T17:46:15.257Z,100776.27
2023-03-18T17:48:43.850Z,100778.27
2023-03-18T17:51:17.409Z,100781.80
2023-03-18T17:53:53.227Z,100781.65
2023-03-18T17:56:21.057Z,100782.45
2023-03-18T17:58:51.561Z,100783.13
2023-03-18T18:01:29.296Z,100789.84
2023-03-18T18:03:58.861Z,100789.32
2023-03-18T18:06:32.140Z,100792.10
2023-03-18T18:09:01.178Z,100792.67
2023-03-18T18:11:32.281Z,100790.63
2023-03-18T18:14:11.197Z,100790.73
2023-03-18T18:16:38.998Z,100792.74
2023-03-18T18:19:07.803Z,100792.30
2023-03-18T18:21:35.632Z,100793.30
2023-03-18T18:24:04.491Z,100792.96
2023-03-18T18:26:32.420Z,100791.98
2023-03-18T18:29:00.415Z,100790.11
2023-03-18T18:31:28.907Z,100786.96
2023-03-18T18:33:56.829Z,100785.90
2023-03-18T18:36:28.196Z,100794.20
2023-03-18T18:38:56.747Z,100791.55
2023-03-18T18:41:24.572Z,100791.01
2023-03-18T18:43:52.774Z,100791.09
2023-03-18T18:46:21.967Z,100797.27
2023-03-18T18:48:50.181Z,100795.56
2023-03-18T18:51:20.229Z,100803.87
2023-03-18T18:53:49.660Z,100802.15
2023-03-18T18:56:23.597Z,100803.16
2023-03-18T18:58:52.888Z,100807.10
2023-03-18T19:01:21.165Z,100808.02
2023-03-18T19:03:50.009Z,100805.66
2023-03-18T19:06:26.146Z,100800.48
2023-03-18T19:08:56.664Z,100802.17
2023-03-18T19:11:26.268Z,100804.06
2023-03-18T19:13:55.340Z,100801.94
2023-03-18T19:16:33.503Z,100804.15
2023-03-18T19:19:01.819Z,100807.63
2023-03-18T19:21:29.620Z,100808.94
2023-03-18T19:23:58.376Z,100809.31
2023-03-18T19:26:27.236Z,100805.73
2023-03-18T19:28:59.486Z,100802.23
2023-03-18T19:31:32.235Z,100804.10
2023-03-18T19:34:00.507Z,100803.64
2023-03-18T19:36:37.680Z,100804.55
2023-03-18T19:39:06.180Z,100806.41
2023-03-18T19:41:33.966Z,100806.22
2023-03-18T19:44:06.294Z,100805.55
2023-03-18T19:46:40.837Z,100804.77
2023-03-18T19:49:11.810Z,100804.16
2023-03-18T19:51:39.665Z,100808.88
2023-03-18T19:54:33.831Z,100811.11
2023-03-18T19:57:03.972Z,100812.00
2023-03-18T19:59:38.738Z,100813.31
2023-03-18T20:02:23.629Z,100816.71
2023-03-18T20:04:54.426Z,100816.84
2023-03-18T20:07:24.800Z,100815.68
2023-03-18T20:09:53.945Z,100814.33
2023-03-18T20:12:24.222Z,100818.33
2023-03-18T20:14:52.540Z,100816.40
2023-03-18T20:17:36.106Z,100815.66
2023-03-18T20:20:05.319Z,100816.73
2023-03-18T20:22:36.615Z,100822.46
2023-03-18T20:25:06.073Z,100820.38
2023-03-18T20:27:34.380Z,100819.95
2023-03-18T20:30:02.349Z,100818.56
2023-03-18T20:32:30.231Z,100814.92
2023-03-18T20:34:58.141Z,100810.41
2023-03-18T20:37:36.179Z,100810.14
2023-03-18T20:40:07.286Z,100811.95
2023-03-18T20:42:35.155Z,100810.30
2023-03-18T20:45:02.963Z,100805.18
2023-03-18T20:47:30.786Z,100805.34
2023-03-18T20:49:58.645Z,100804.33
2023-03-18T20:52:29.784Z,100808.20
2023-03-18T20:54:57.966Z,100803.47
2023-03-18T20:57:26.332Z,100805.55
2023-03-18T20:59:54.197Z,100806.16
2023-03-18T21:02:31.431Z,100809.98
2023-03-18T21:05:01.714Z,100808.59
2023-03-18T21:07:30.172Z,100806.13
2023-03-18T21:09:58.012Z,100803.63
2023-03-18T21:12:25.960Z,100802.79
2023-03-18T21:14:53.730Z,100808.28
2023-03-18T21:17:27.377Z,100813.69
2023-03-18T21:20:04.996Z,100816.44
2023-03-18T21:22:37.053Z,100820.84
2023-03-18T21:25:07.702Z,100816.55
2023-03-18T21:27:36.887Z,100818.20
2023-03-18T21:30:06.178Z,100818.20
2023-03-18T21:32:34.463Z,100821.33
2023-03-18T21:35:02.438Z,100812.77
2023-03-18T21:37:30.604Z,100810.42
2023-03-18T21:39:58.460Z,100807.48
2023-03-18T21:42:29.399Z,100803.42
2023-03-18T21:44:57.467Z,100801.55
2023-03-18T21:47:27.046Z,100792.66
2023-03-18T21:49:54.882Z,100799.17
2023-03-18T21:52:29.382Z,100801.53
2023-03-18T21:54:58.385Z,100801.67
2023-03-18T21:57:26.702Z,100800.46
2023-03-18T21:59:54.557Z,100804.08
2023-03-18T22:02:37.631Z,100807.89
2023-03-18T22:05:18.211Z,100814.19
2023-03-18T22:07:46.872Z,100817.98
2023-03-18T22:10:16.862Z,100814.96
2023-03-18T22:12:45.337Z,100822.01
2023-03-18T22:15:34.059Z,100817.97
2023-03-18T22:18:02.834Z,100820.12
2023-03-18T22:20:30.685Z,100820.04
2023-03-18T22:22:58.459Z,100820.00
2023-03-18T22:25:39.126Z,100818.67
2023-03-18T22:28:06.940Z,100816.67
2023-03-18T22:30:35.525Z,100823.09
2023-03-18T22:33:04.581Z,100825.87
2023-03-18T22:35:33.003Z,100826.34
2023-03-18T22:38:01.088Z,100829.51
2023-03-18T22:40:31.609Z,100831.05
2023-03-18T22:43:01.653Z,100830.14
2023-03-18T22:45:32.218Z,100828.38
2023-03-18T22:48:03.033Z,100828.40
2023-03-18T22:50:33.947Z,100825.56
2023-03-18T22:53:05.995Z,100827.74
2023-03-18T22:55:39.873Z,100833.01
2023-03-18T22:58:18.995Z,100834.77
2023-03-18T23:00:47.914Z,100834.55
2023-03-18T23:03:18.741Z,100837.99
2023-03-18T23:05:48.566Z,100839.32
2023-03-18T23:08:16.534Z,100841.66
2023-03-18T23:10:45.004Z,100842.14
2023-03-18T23:13:34.500Z,100847.88
2023-03-18T23:16:05.284Z,100851.52
2023-03-18T23:18:33.527Z,100846.03
2023-03-18T23:21:01.834Z,100841.40
2023-03-18T23:23:30.488Z,100840.19
2023-03-18T23:25:58.423Z,100844.09
2023-03-18T23:28:26.556Z,100846.86
2023-03-18T23:30:54.524Z,100844.56
2023-03-18T23:33:22.291Z,100849.46
2023-03-18T23:35:50.312Z,100848.17
2023-03-18T23:38:18.172Z,100848.41
2023-03-18T23:40:46.034Z,100844.67
2023-03-18T23:43:14.010Z,100844.80
2023-03-18T23:45:42.033Z,100842.09
2023-03-18T23:48:09.991Z,100844.77
2023-03-18T23:50:37.850Z,100847.80
2023-03-18T23:53:05.758Z,100843.31
2023-03-18T23:55:35.228Z,100842.33
2023-03-18T23:58:04.090Z,100843.72
